createdAt,value
2018-11-21T00:05:40.806Z,1.70
2018-11-21T00:15:45.138Z,1.50
2018-11-21T00:25:49.504Z,1.60
2018-11-21T00:35:53.915Z,1.60
2018-11-21T00:45:58.142Z,1.40
2018-11-21T00:56:02.380Z,1.50
2018-11-21T01:06:06.558Z,1.50
2018-11-21T01:16:10.893Z,1.30
2018-11-21T01:26:15.214Z,1.30
2018-11-21T01:36:19.451Z,1.40
2018-11-21T01:46:23.702Z,1.40
2018-11-21T01:56:28.003Z,1.60
2018-11-21T02:06:32.181Z,1.50
2018-11-21T02:16:36.601Z,1.60
2018-11-21T02:26:40.887Z,1.60
2018-11-21T02:36:45.154Z,1.70
2018-11-21T02:46:49.339Z,1.80
2018-11-21T02:57:15.736Z,1.70
2018-11-21T03:07:19.946Z,1.70
2018-11-21T03:17:24.221Z,1.70
2018-11-21T03:27:28.428Z,1.80
2018-11-21T03:37:32.612Z,1.80
2018-11-21T03:47:36.839Z,1.70
2018-11-21T03:57:41.014Z,1.90
2018-11-21T04:07:45.254Z,1.90
2018-11-21T04:17:49.455Z,1.70
2018-11-21T04:27:53.657Z,1.60
2018-11-21T04:37:57.873Z,1.80
2018-11-21T04:48:02.081Z,1.90
2018-11-21T04:58:06.653Z,1.80
2018-11-21T05:08:10.861Z,1.80
2018-11-21T05:18:15.068Z,1.70
2018-11-21T05:28:19.266Z,1.90
2018-11-21T05:38:23.485Z,1.90
2018-11-21T05:48:27.743Z,1.80
2018-11-21T05:58:31.949Z,1.70
2018-11-21T06:08:36.183Z,1.70
2018-11-21T06:18:40.465Z,1.70
2018-11-21T06:28:44.656Z,1.60
2018-11-21T06:38:48.866Z,1.70
2018-11-21T06:48:53.084Z,1.70
2018-11-21T06:58:57.293Z,1.80
2018-11-21T07:09:01.494Z,1.80
2018-11-21T07:19:05.795Z,1.80
2018-11-21T07:29:10.045Z,2.00
2018-11-21T07:39:14.262Z,2.00
2018-11-21T07:49:18.600Z,1.90
2018-11-21T07:59:22.844Z,2.10
2018-11-21T08:09:47.035Z,2.30
2018-11-21T08:20:28.276Z,2.50
2018-11-21T08:30:32.474Z,2.60
2018-11-21T08:40:36.689Z,2.60
2018-11-21T08:50:40.913Z,2.90
2018-11-21T09:00:45.557Z,2.80
2018-11-21T09:10:49.786Z,3.40
2018-11-21T09:20:54.028Z,3.60
2018-11-21T09:30:58.250Z,3.70
2018-11-21T09:41:02.459Z,3.80
2018-11-21T09:51:06.822Z,4.20
2018-11-21T10:01:46.828Z,4.20
2018-11-21T10:11:51.026Z,4.50
2018-11-21T10:21:55.232Z,4.20
2018-11-21T10:31:59.541Z,4.10
2018-11-21T10:42:03.753Z,4.20
2018-11-21T10:52:07.995Z,4.60
2018-11-21T11:02:45.981Z,5.50
2018-11-21T11:13:07.940Z,6.00
2018-11-21T11:23:30.261Z,6.20
2018-11-21T11:33:45.112Z,7.70
2018-11-21T11:44:11.193Z,10.50
2018-11-21T11:54:43.161Z,11.30
2018-11-21T12:04:54.259Z,10.70
2018-11-21T12:15:15.744Z,7.90
2018-11-21T12:25:45.113Z,6.60
2018-11-21T12:36:06.652Z,5.90
2018-11-21T12:46:35.838Z,5.30
2018-11-21T12:56:57.367Z,4.80
2018-11-21T13:07:26.420Z,4.80
2018-11-21T13:17:48.209Z,4.70
2018-11-21T13:28:14.394Z,4.50
2018-11-21T13:38:52.879Z,4.50
2018-11-21T13:49:18.744Z,4.50
2018-11-21T13:59:22.961Z,4.50
2018-11-21T14:09:27.247Z,4.30
2018-11-21T14:19:31.480Z,4.00
2018-11-21T14:29:35.716Z,3.90
2018-11-21T14:39:39.934Z,3.80
2018-11-21T14:49:46.872Z,3.70
2018-11-21T14:59:51.085Z,3.70
2018-11-21T15:09:55.291Z,3.90
2018-11-21T15:19:59.676Z,3.90
2018-11-21T15:30:04.563Z,3.80
2018-11-21T15:40:11.058Z,3.80
2018-11-21T15:50:16.344Z,3.70
2018-11-21T16:00:23.078Z,3.60
2018-11-21T16:10:34.539Z,3.70
2018-11-21T16:20:38.755Z,3.70
2018-11-21T16:30:43.016Z,3.80
2018-11-21T16:40:47.201Z,3.80
2018-11-21T16:50:51.549Z,3.60
2018-11-21T17:00:55.784Z,3.50
2018-11-21T17:11:00.066Z,3.50
2018-11-21T17:21:04.323Z,3.50
2018-11-21T17:31:08.592Z,3.70
2018-11-21T17:41:15.213Z,3.50
2018-11-21T17:51:19.468Z,3.50
2018-11-21T18:01:23.725Z,3.30
2018-11-21T18:11:27.966Z,3.20
2018-11-21T18:21:32.219Z,3.50
2018-11-21T18:31:36.485Z,3.30
2018-11-21T18:41:40.770Z,3.40
2018-11-21T18:51:45.008Z,3.20
2018-11-21T19:01:49.240Z,3.40
2018-11-21T19:11:53.461Z,3.30
2018-11-21T19:21:57.714Z,3.40
2018-11-21T19:32:01.927Z,3.20
2018-11-21T19:42:06.139Z,3.10
2018-11-21T19:52:10.377Z,3.10
2018-11-21T20:02:14.765Z,3.10
2018-11-21T20:12:18.995Z,3.00
2018-11-21T20:22:23.315Z,3.00
2018-11-21T20:32:27.556Z,3.20
2018-11-21T20:42:31.878Z,3.10
2018-11-21T20:52:36.271Z,3.00
2018-11-21T21:02:40.699Z,3.10
2018-11-21T21:12:45.020Z,3.00
2018-11-21T21:22:50.783Z,3.00
2018-11-21T21:33:05.257Z,3.00
2018-11-21T21:43:10.623Z,3.00
2018-11-21T21:53:15.095Z,3.10
2018-11-21T22:03:19.328Z,3.00
2018-11-21T22:13:23.620Z,2.90
2018-11-21T22:23:28.197Z,3.10
2018-11-21T22:33:32.423Z,3.10
2018-11-21T22:43:36.680Z,3.00
2018-11-21T22:53:40.923Z,3.00
2018-11-21T23:03:45.185Z,2.80
2018-11-21T23:13:49.419Z,2.60
2018-11-21T23:23:53.674Z,3.10
2018-11-21T23:33:57.917Z,2.90
2018-11-21T23:44:02.155Z,3.00
2018-11-21T23:54:06.652Z,3.00
